Terminal Aerodrome Forecast
Issued by NWS Houston/Galveston, TX

Home | Current Version | Previous Version | Text Only | Print | Product List | Glossary On
Versions: 1 2 3 4 5 6 7 8 9 10 11 12 13 14 15 16 17 18 19 20 21 22 23 24 25 26 27 28
000
FTUS44 KHGX 262043 AAA
TAFGLS
TAF AMD
KGLS 262043Z 2621/2718 15018G25KT 6SM HZ VCSH SCT015
     FM270500 15017G24KT P6SM OVC025
     FM270900 17018G25KT P6SM SCT007 BKN012
     FM271200 16020G26KT P6SM VCSH OVC015=

USA.gov is the U.S. government's official web portal to all federal, state and local government web resources and services.